sensor_id;sensor_type;location;lat;lon;timestamp;P1;durP1;ratioP1;P2;durP2;ratioP2
31382;SDS011;18014;49.228;11.102;2023-03-16T00:00:02;11.75;;;7.95;;
31382;SDS011;18014;49.228;11.102;2023-03-16T00:02:08;12.02;;;7.93;;
31382;SDS011;18014;49.228;11.102;2023-03-16T00:04:10;11.65;;;7.82;;
31382;SDS011;18014;49.228;11.102;2023-03-16T00:06:12;12.90;;;8.35;;
31382;SDS011;18014;49.228;11.102;2023-03-16T00:08:15;16.08;;;9.35;;
31382;SDS011;18014;49.228;11.102;2023-03-16T00:10:16;13.63;;;9.00;;
31382;SDS011;18014;49.228;11.102;2023-03-16T00:12:17;12.02;;;8.90;;
31382;SDS011;18014;49.228;11.102;2023-03-16T00:14:19;14.57;;;8.85;;
31382;SDS011;18014;49.228;11.102;2023-03-16T00:16:21;14.93;;;10.02;;
31382;SDS011;18014;49.228;11.102;2023-03-16T00:18:23;14.80;;;8.73;;
31382;SDS011;18014;49.228;11.102;2023-03-16T00:20:28;14.90;;;9.32;;
31382;SDS011;18014;49.228;11.102;2023-03-16T00:22:29;16.38;;;9.48;;
31382;SDS011;18014;49.228;11.102;2023-03-16T00:24:30;13.07;;;9.05;;
31382;SDS011;18014;49.228;11.102;2023-03-16T00:26:31;12.93;;;8.88;;
31382;SDS011;18014;49.228;11.102;2023-03-16T00:28:32;13.70;;;8.18;;
31382;SDS011;18014;49.228;11.102;2023-03-16T00:30:34;11.90;;;8.38;;
31382;SDS011;18014;49.228;11.102;2023-03-16T00:32:36;12.15;;;8.32;;
31382;SDS011;18014;49.228;11.102;2023-03-16T00:34:37;12.70;;;8.15;;
31382;SDS011;18014;49.228;11.102;2023-03-16T00:36:38;11.77;;;7.95;;
31382;SDS011;18014;49.228;11.102;2023-03-16T00:38:41;9.13;;;7.03;;
31382;SDS011;18014;49.228;11.102;2023-03-16T00:40:48;11.75;;;8.15;;
31382;SDS011;18014;49.228;11.102;2023-03-16T00:42:50;12.13;;;8.32;;
31382;SDS011;18014;49.228;11.102;2023-03-16T00:44:51;11.80;;;7.90;;
31382;SDS011;18014;49.228;11.102;2023-03-16T00:46:56;11.23;;;7.82;;
31382;SDS011;18014;49.228;11.102;2023-03-16T00:48:57;13.35;;;8.30;;
31382;SDS011;18014;49.228;11.102;2023-03-16T00:50:58;9.50;;;7.65;;
31382;SDS011;18014;49.228;11.102;2023-03-16T00:53:00;10.77;;;8.48;;
31382;SDS011;18014;49.228;11.102;2023-03-16T00:55:01;11.20;;;8.27;;
31382;SDS011;18014;49.228;11.102;2023-03-16T00:57:03;12.50;;;7.53;;
31382;SDS011;18014;49.228;11.102;2023-03-16T00:59:04;10.15;;;8.05;;
31382;SDS011;18014;49.228;11.102;2023-03-16T01:01:06;8.70;;;6.97;;
31382;SDS011;18014;49.228;11.102;2023-03-16T01:03:09;8.85;;;6.90;;
31382;SDS011;18014;49.228;11.102;2023-03-16T01:05:11;9.63;;;7.10;;
31382;SDS011;18014;49.228;11.102;2023-03-16T01:09:14;10.13;;;6.07;;
31382;SDS011;18014;49.228;11.102;2023-03-16T01:11:16;8.90;;;7.18;;
31382;SDS011;18014;49.228;11.102;2023-03-16T01:13:19;8.50;;;6.88;;
31382;SDS011;18014;49.228;11.102;2023-03-16T01:15:20;8.18;;;5.80;;
31382;SDS011;18014;49.228;11.102;2023-03-16T01:17:21;9.18;;;6.75;;
31382;SDS011;18014;49.228;11.102;2023-03-16T01:19:22;8.93;;;6.85;;
31382;SDS011;18014;49.228;11.102;2023-03-16T01:21:24;11.32;;;7.78;;
31382;SDS011;18014;49.228;11.102;2023-03-16T01:23:25;10.23;;;7.47;;
31382;SDS011;18014;49.228;11.102;2023-03-16T01:25:26;10.50;;;8.07;;
31382;SDS011;18014;49.228;11.102;2023-03-16T01:27:27;9.50;;;7.50;;
31382;SDS011;18014;49.228;11.102;2023-03-16T01:29:28;9.50;;;7.38;;
31382;SDS011;18014;49.228;11.102;2023-03-16T01:31:29;10.35;;;7.95;;
31382;SDS011;18014;49.228;11.102;2023-03-16T01:33:31;10.80;;;7.43;;
31382;SDS011;18014;49.228;11.102;2023-03-16T01:35:32;10.40;;;7.18;;
31382;SDS011;18014;49.228;11.102;2023-03-16T01:37:33;13.18;;;9.40;;
31382;SDS011;18014;49.228;11.102;2023-03-16T01:39:34;12.60;;;9.40;;
31382;SDS011;18014;49.228;11.102;2023-03-16T01:41:35;13.90;;;9.35;;
31382;SDS011;18014;49.228;11.102;2023-03-16T01:43:37;14.15;;;9.85;;
31382;SDS011;18014;49.228;11.102;2023-03-16T01:48:05;14.35;;;10.07;;
31382;SDS011;18014;49.228;11.102;2023-03-16T01:50:06;14.15;;;10.10;;
31382;SDS011;18014;49.228;11.102;2023-03-16T01:52:09;12.68;;;9.00;;
31382;SDS011;18014;49.228;11.102;2023-03-16T01:54:25;12.20;;;8.35;;
31382;SDS011;18014;49.228;11.102;2023-03-16T01:56:55;11.52;;;8.32;;
31382;SDS011;18014;49.228;11.102;2023-03-16T01:58:56;13.70;;;9.68;;
31382;SDS011;18014;49.228;11.102;2023-03-16T02:00:59;12.75;;;9.15;;
31382;SDS011;18014;49.228;11.102;2023-03-16T02:03:09;15.75;;;10.15;;
31382;SDS011;18014;49.228;11.102;2023-03-16T02:05:25;17.63;;;11.43;;
31382;SDS011;18014;49.228;11.102;2023-03-16T02:07:33;15.75;;;9.65;;
31382;SDS011;18014;49.228;11.102;2023-03-16T02:09:39;14.55;;;9.02;;
31382;SDS011;18014;49.228;11.102;2023-03-16T02:11:45;14.30;;;9.45;;
31382;SDS011;18014;49.228;11.102;2023-03-16T02:13:47;15.95;;;9.77;;
31382;SDS011;18014;49.228;11.102;2023-03-16T02:15:48;18.38;;;11.23;;
31382;SDS011;18014;49.228;11.102;2023-03-16T02:20:15;14.13;;;8.98;;
31382;SDS011;18014;49.228;11.102;2023-03-16T02:22:34;14.23;;;10.00;;
31382;SDS011;18014;49.228;11.102;2023-03-16T02:24:37;14.82;;;9.65;;
31382;SDS011;18014;49.228;11.102;2023-03-16T02:26:44;13.60;;;9.50;;
31382;SDS011;18014;49.228;11.102;2023-03-16T02:29:05;13.35;;;9.63;;
31382;SDS011;18014;49.228;11.102;2023-03-16T02:31:15;14.93;;;10.60;;
31382;SDS011;18014;49.228;11.102;2023-03-16T02:33:17;15.98;;;10.00;;
31382;SDS011;18014;49.228;11.102;2023-03-16T02:35:20;14.25;;;9.25;;
31382;SDS011;18014;49.228;11.102;2023-03-16T02:37:21;15.43;;;9.95;;
31382;SDS011;18014;49.228;11.102;2023-03-16T02:39:22;14.63;;;10.25;;
31382;SDS011;18014;49.228;11.102;2023-03-16T02:41:23;14.27;;;10.02;;
31382;SDS011;18014;49.228;11.102;2023-03-16T02:43:26;14.50;;;11.43;;
31382;SDS011;18014;49.228;11.102;2023-03-16T02:45:36;15.43;;;11.25;;
31382;SDS011;18014;49.228;11.102;2023-03-16T02:47:47;16.45;;;10.43;;
31382;SDS011;18014;49.228;11.102;2023-03-16T02:49:50;12.52;;;8.70;;
31382;SDS011;18014;49.228;11.102;2023-03-16T02:51:52;13.50;;;9.63;;
31382;SDS011;18014;49.228;11.102;2023-03-16T02:53:53;13.68;;;9.45;;
31382;SDS011;18014;49.228;11.102;2023-03-16T02:55:54;13.80;;;10.15;;
31382;SDS011;18014;49.228;11.102;2023-03-16T02:57:55;15.00;;;9.85;;
31382;SDS011;18014;49.228;11.102;2023-03-16T02:59:56;14.32;;;9.70;;
31382;SDS011;18014;49.228;11.102;2023-03-16T03:01:57;15.23;;;10.30;;
31382;SDS011;18014;49.228;11.102;2023-03-16T03:03:58;12.95;;;9.75;;
31382;SDS011;18014;49.228;11.102;2023-03-16T03:06:00;12.85;;;9.52;;
31382;SDS011;18014;49.228;11.102;2023-03-16T03:08:01;13.77;;;10.50;;
31382;SDS011;18014;49.228;11.102;2023-03-16T03:10:04;12.82;;;9.77;;
31382;SDS011;18014;49.228;11.102;2023-03-16T03:12:05;14.63;;;9.50;;
31382;SDS011;18014;49.228;11.102;2023-03-16T03:14:07;14.40;;;10.45;;
31382;SDS011;18014;49.228;11.102;2023-03-16T03:16:09;12.60;;;9.65;;
31382;SDS011;18014;49.228;11.102;2023-03-16T03:18:10;14.82;;;10.07;;
31382;SDS011;18014;49.228;11.102;2023-03-16T03:20:11;12.38;;;9.00;;
31382;SDS011;18014;49.228;11.102;2023-03-16T03:22:14;14.18;;;9.93;;
31382;SDS011;18014;49.228;11.102;2023-03-16T03:24:17;15.27;;;10.53;;
31382;SDS011;18014;49.228;11.102;2023-03-16T03:26:18;14.00;;;9.80;;
31382;SDS011;18014;49.228;11.102;2023-03-16T03:28:20;14.68;;;9.73;;
31382;SDS011;18014;49.228;11.102;2023-03-16T03:30:22;16.08;;;9.55;;
31382;SDS011;18014;49.228;11.102;2023-03-16T03:34:24;16.05;;;10.57;;
31382;SDS011;18014;49.228;11.102;2023-03-16T03:36:25;16.10;;;10.50;;
31382;SDS011;18014;49.228;11.102;2023-03-16T03:38:26;14.85;;;9.93;;
31382;SDS011;18014;49.228;11.102;2023-03-16T03:40:27;14.85;;;9.80;;
31382;SDS011;18014;49.228;11.102;2023-03-16T03:42:28;13.73;;;9.73;;
31382;SDS011;18014;49.228;11.102;2023-03-16T03:44:30;13.88;;;9.00;;
31382;SDS011;18014;49.228;11.102;2023-03-16T03:46:33;12.80;;;8.25;;
31382;SDS011;18014;49.228;11.102;2023-03-16T03:48:34;14.73;;;10.48;;
31382;SDS011;18014;49.228;11.102;2023-03-16T03:50:35;14.50;;;9.80;;
31382;SDS011;18014;49.228;11.102;2023-03-16T03:52:37;15.15;;;10.73;;
31382;SDS011;18014;49.228;11.102;2023-03-16T03:54:38;13.25;;;9.73;;
31382;SDS011;18014;49.228;11.102;2023-03-16T03:56:39;15.13;;;10.43;;
31382;SDS011;18014;49.228;11.102;2023-03-16T03:58:40;14.77;;;10.20;;
31382;SDS011;18014;49.228;11.102;2023-03-16T04:00:41;13.82;;;9.27;;
31382;SDS011;18014;49.228;11.102;2023-03-16T04:02:42;15.90;;;10.10;;
31382;SDS011;18014;49.228;11.102;2023-03-16T04:04:43;14.93;;;9.57;;
31382;SDS011;18014;49.228;11.102;2023-03-16T04:06:44;14.30;;;9.90;;
31382;SDS011;18014;49.228;11.102;2023-03-16T04:08:45;13.50;;;9.32;;
31382;SDS011;18014;49.228;11.102;2023-03-16T04:10:46;16.70;;;11.48;;
31382;SDS011;18014;49.228;11.102;2023-03-16T04:12:48;25.40;;;14.88;;
31382;SDS011;18014;49.228;11.102;2023-03-16T04:14:48;23.63;;;14.60;;
31382;SDS011;18014;49.228;11.102;2023-03-16T04:16:50;19.40;;;12.20;;
31382;SDS011;18014;49.228;11.102;2023-03-16T04:18:52;19.85;;;11.30;;
31382;SDS011;18014;49.228;11.102;2023-03-16T04:20:53;10.55;;;7.57;;
31382;SDS011;18014;49.228;11.102;2023-03-16T04:22:54;16.35;;;10.82;;
31382;SDS011;18014;49.228;11.102;2023-03-16T04:26:58;14.80;;;9.82;;
31382;SDS011;18014;49.228;11.102;2023-03-16T04:28:59;17.87;;;10.87;;
31382;SDS011;18014;49.228;11.102;2023-03-16T04:31:03;19.75;;;13.20;;
31382;SDS011;18014;49.228;11.102;2023-03-16T04:33:06;18.83;;;12.75;;
31382;SDS011;18014;49.228;11.102;2023-03-16T04:35:07;19.42;;;12.80;;
31382;SDS011;18014;49.228;11.102;2023-03-16T04:37:08;20.45;;;13.15;;
31382;SDS011;18014;49.228;11.102;2023-03-16T04:39:10;20.08;;;12.77;;
31382;SDS011;18014;49.228;11.102;2023-03-16T04:41:10;22.42;;;14.73;;
31382;SDS011;18014;49.228;11.102;2023-03-16T04:43:12;20.20;;;13.32;;
31382;SDS011;18014;49.228;11.102;2023-03-16T04:45:13;18.98;;;12.85;;
31382;SDS011;18014;49.228;11.102;2023-03-16T04:47:15;19.42;;;12.48;;
31382;SDS011;18014;49.228;11.102;2023-03-16T04:49:16;16.05;;;10.93;;
31382;SDS011;18014;49.228;11.102;2023-03-16T04:51:17;14.35;;;9.55;;
31382;SDS011;18014;49.228;11.102;2023-03-16T04:53:18;15.23;;;10.18;;
31382;SDS011;18014;49.228;11.102;2023-03-16T04:55:19;13.68;;;9.85;;
31382;SDS011;18014;49.228;11.102;2023-03-16T04:57:21;13.82;;;9.80;;
31382;SDS011;18014;49.228;11.102;2023-03-16T04:59:22;15.40;;;10.23;;
31382;SDS011;18014;49.228;11.102;2023-03-16T05:01:23;14.40;;;9.93;;
31382;SDS011;18014;49.228;11.102;2023-03-16T05:03:24;13.07;;;9.20;;
31382;SDS011;18014;49.228;11.102;2023-03-16T05:05:25;16.05;;;9.02;;
31382;SDS011;18014;49.228;11.102;2023-03-16T05:07:26;13.35;;;9.27;;
31382;SDS011;18014;49.228;11.102;2023-03-16T05:09:27;13.55;;;9.43;;
31382;SDS011;18014;49.228;11.102;2023-03-16T05:11:28;13.90;;;9.18;;
31382;SDS011;18014;49.228;11.102;2023-03-16T05:13:29;14.95;;;9.20;;
31382;SDS011;18014;49.228;11.102;2023-03-16T05:15:30;13.05;;;8.88;;
31382;SDS011;18014;49.228;11.102;2023-03-16T05:17:32;9.85;;;6.93;;
31382;SDS011;18014;49.228;11.102;2023-03-16T05:19:33;16.55;;;10.23;;
31382;SDS011;18014;49.228;11.102;2023-03-16T05:21:34;13.93;;;8.55;;
31382;SDS011;18014;49.228;11.102;2023-03-16T05:23:37;14.70;;;9.52;;
31382;SDS011;18014;49.228;11.102;2023-03-16T05:25:38;14.02;;;9.32;;
31382;SDS011;18014;49.228;11.102;2023-03-16T05:27:43;15.43;;;11.32;;
31382;SDS011;18014;49.228;11.102;2023-03-16T05:29:45;16.38;;;10.25;;
31382;SDS011;18014;49.228;11.102;2023-03-16T05:31:47;16.63;;;11.55;;
31382;SDS011;18014;49.228;11.102;2023-03-16T05:33:48;14.95;;;10.77;;
31382;SDS011;18014;49.228;11.102;2023-03-16T05:35:49;15.18;;;9.90;;
31382;SDS011;18014;49.228;11.102;2023-03-16T05:37:50;16.33;;;10.98;;
31382;SDS011;18014;49.228;11.102;2023-03-16T05:39:51;14.73;;;10.52;;
31382;SDS011;18014;49.228;11.102;2023-03-16T05:41:52;15.13;;;9.82;;
31382;SDS011;18014;49.228;11.102;2023-03-16T05:43:54;18.08;;;10.30;;
31382;SDS011;18014;49.228;11.102;2023-03-16T05:45:55;18.38;;;10.95;;
31382;SDS011;18014;49.228;11.102;2023-03-16T05:47:56;15.77;;;10.82;;
31382;SDS011;18014;49.228;11.102;2023-03-16T05:49:57;17.92;;;11.45;;
31382;SDS011;18014;49.228;11.102;2023-03-16T05:51:58;17.23;;;11.30;;
31382;SDS011;18014;49.228;11.102;2023-03-16T05:53:59;16.75;;;10.88;;
31382;SDS011;18014;49.228;11.102;2023-03-16T05:56:00;15.25;;;10.55;;
31382;SDS011;18014;49.228;11.102;2023-03-16T05:58:01;17.30;;;11.05;;
31382;SDS011;18014;49.228;11.102;2023-03-16T06:00:03;15.10;;;10.27;;
31382;SDS011;18014;49.228;11.102;2023-03-16T06:02:13;14.63;;;10.35;;
31382;SDS011;18014;49.228;11.102;2023-03-16T06:04:14;16.70;;;11.50;;
31382;SDS011;18014;49.228;11.102;2023-03-16T06:06:15;17.40;;;10.95;;
31382;SDS011;18014;49.228;11.102;2023-03-16T06:08:17;15.00;;;9.95;;
31382;SDS011;18014;49.228;11.102;2023-03-16T06:10:19;15.90;;;11.18;;
31382;SDS011;18014;49.228;11.102;2023-03-16T06:12:20;15.80;;;10.40;;
31382;SDS011;18014;49.228;11.102;2023-03-16T06:14:21;14.85;;;10.80;;
31382;SDS011;18014;49.228;11.102;2023-03-16T06:16:23;14.83;;;10.07;;
31382;SDS011;18014;49.228;11.102;2023-03-16T06:18:24;16.20;;;10.52;;
31382;SDS011;18014;49.228;11.102;2023-03-16T06:20:25;21.20;;;12.98;;
31382;SDS011;18014;49.228;11.102;2023-03-16T06:22:26;15.07;;;10.63;;
31382;SDS011;18014;49.228;11.102;2023-03-16T06:24:29;17.17;;;11.23;;
31382;SDS011;18014;49.228;11.102;2023-03-16T06:26:30;19.75;;;12.63;;
31382;SDS011;18014;49.228;11.102;2023-03-16T06:28:31;18.98;;;13.38;;
31382;SDS011;18014;49.228;11.102;2023-03-16T06:30:32;20.77;;;13.70;;
31382;SDS011;18014;49.228;11.102;2023-03-16T06:32:33;17.67;;;12.98;;
31382;SDS011;18014;49.228;11.102;2023-03-16T06:34:36;26.33;;;16.75;;
31382;SDS011;18014;49.228;11.102;2023-03-16T06:36:38;31.25;;;19.40;;
31382;SDS011;18014;49.228;11.102;2023-03-16T06:38:39;38.60;;;23.45;;
31382;SDS011;18014;49.228;11.102;2023-03-16T06:40:40;51.53;;;29.60;;
31382;SDS011;18014;49.228;11.102;2023-03-16T06:42:41;61.33;;;34.33;;
31382;SDS011;18014;49.228;11.102;2023-03-16T06:44:42;31.90;;;19.83;;
31382;SDS011;18014;49.228;11.102;2023-03-16T06:46:43;19.90;;;13.75;;
31382;SDS011;18014;49.228;11.102;2023-03-16T06:48:44;17.10;;;11.73;;
31382;SDS011;18014;49.228;11.102;2023-03-16T06:50:46;14.45;;;10.52;;
31382;SDS011;18014;49.228;11.102;2023-03-16T06:52:47;14.27;;;10.00;;
31382;SDS011;18014;49.228;11.102;2023-03-16T06:54:48;18.85;;;11.45;;
31382;SDS011;18014;49.228;11.102;2023-03-16T06:56:49;14.90;;;10.05;;
31382;SDS011;18014;49.228;11.102;2023-03-16T06:58:51;14.15;;;10.75;;
31382;SDS011;18014;49.228;11.102;2023-03-16T07:00:52;14.02;;;10.32;;
31382;SDS011;18014;49.228;11.102;2023-03-16T07:02:53;15.50;;;10.75;;
31382;SDS011;18014;49.228;11.102;2023-03-16T07:04:54;14.88;;;10.13;;
31382;SDS011;18014;49.228;11.102;2023-03-16T07:06:55;14.48;;;10.82;;
31382;SDS011;18014;49.228;11.102;2023-03-16T07:08:56;16.60;;;11.25;;
31382;SDS011;18014;49.228;11.102;2023-03-16T07:10:57;15.02;;;10.50;;
31382;SDS011;18014;49.228;11.102;2023-03-16T07:12:58;13.73;;;9.73;;
31382;SDS011;18014;49.228;11.102;2023-03-16T07:14:59;14.57;;;10.05;;
31382;SDS011;18014;49.228;11.102;2023-03-16T07:17:00;14.95;;;10.85;;
31382;SDS011;18014;49.228;11.102;2023-03-16T07:19:01;14.13;;;9.90;;
31382;SDS011;18014;49.228;11.102;2023-03-16T07:21:02;14.57;;;11.07;;
31382;SDS011;18014;49.228;11.102;2023-03-16T07:23:03;14.00;;;10.65;;
31382;SDS011;18014;49.228;11.102;2023-03-16T07:25:05;13.73;;;10.45;;
31382;SDS011;18014;49.228;11.102;2023-03-16T07:27:06;16.73;;;10.60;;
31382;SDS011;18014;49.228;11.102;2023-03-16T07:29:08;13.60;;;10.30;;
31382;SDS011;18014;49.228;11.102;2023-03-16T07:31:09;13.05;;;9.18;;
31382;SDS011;18014;49.228;11.102;2023-03-16T07:33:11;16.30;;;9.75;;
31382;SDS011;18014;49.228;11.102;2023-03-16T07:35:12;12.45;;;9.43;;
31382;SDS011;18014;49.228;11.102;2023-03-16T07:37:13;12.20;;;8.63;;
31382;SDS011;18014;49.228;11.102;2023-03-16T07:39:17;13.07;;;9.00;;
31382;SDS011;18014;49.228;11.102;2023-03-16T07:41:18;12.95;;;9.10;;
31382;SDS011;18014;49.228;11.102;2023-03-16T07:43:20;11.65;;;8.57;;
31382;SDS011;18014;49.228;11.102;2023-03-16T07:45:21;10.55;;;8.50;;
31382;SDS011;18014;49.228;11.102;2023-03-16T07:47:22;13.82;;;9.40;;
31382;SDS011;18014;49.228;11.102;2023-03-16T07:49:24;13.27;;;9.05;;
31382;SDS011;18014;49.228;11.102;2023-03-16T07:51:26;13.77;;;8.73;;
31382;SDS011;18014;49.228;11.102;2023-03-16T07:53:28;10.45;;;8.38;;
31382;SDS011;18014;49.228;11.102;2023-03-16T07:55:29;11.75;;;8.25;;
31382;SDS011;18014;49.228;11.102;2023-03-16T07:57:30;10.20;;;7.72;;
31382;SDS011;18014;49.228;11.102;2023-03-16T07:59:31;10.48;;;7.30;;
31382;SDS011;18014;49.228;11.102;2023-03-16T08:01:32;10.00;;;7.70;;
31382;SDS011;18014;49.228;11.102;2023-03-16T08:03:33;9.95;;;7.10;;
31382;SDS011;18014;49.228;11.102;2023-03-16T08:05:34;10.73;;;7.03;;
31382;SDS011;18014;49.228;11.102;2023-03-16T08:07:35;10.65;;;7.30;;
31382;SDS011;18014;49.228;11.102;2023-03-16T08:09:36;9.18;;;7.65;;
31382;SDS011;18014;49.228;11.102;2023-03-16T08:11:37;9.05;;;6.80;;
31382;SDS011;18014;49.228;11.102;2023-03-16T08:13:38;8.63;;;6.03;;
31382;SDS011;18014;49.228;11.102;2023-03-16T08:15:46;9.77;;;6.82;;
31382;SDS011;18014;49.228;11.102;2023-03-16T08:18:00;9.32;;;6.30;;
31382;SDS011;18014;49.228;11.102;2023-03-16T08:20:04;9.93;;;6.57;;
31382;SDS011;18014;49.228;11.102;2023-03-16T08:22:09;7.15;;;5.53;;
31382;SDS011;18014;49.228;11.102;2023-03-16T08:24:10;9.60;;;6.05;;
31382;SDS011;18014;49.228;11.102;2023-03-16T08:26:11;8.25;;;5.43;;
31382;SDS011;18014;49.228;11.102;2023-03-16T08:28:13;8.25;;;5.20;;
31382;SDS011;18014;49.228;11.102;2023-03-16T08:30:15;7.28;;;5.32;;
31382;SDS011;18014;49.228;11.102;2023-03-16T08:32:16;7.45;;;5.72;;
31382;SDS011;18014;49.228;11.102;2023-03-16T08:34:17;6.60;;;4.93;;
31382;SDS011;18014;49.228;11.102;2023-03-16T08:36:18;5.45;;;4.25;;
31382;SDS011;18014;49.228;11.102;2023-03-16T08:38:20;8.40;;;5.22;;
31382;SDS011;18014;49.228;11.102;2023-03-16T08:40:21;5.38;;;4.15;;
31382;SDS011;18014;49.228;11.102;2023-03-16T08:42:24;5.72;;;4.15;;
31382;SDS011;18014;49.228;11.102;2023-03-16T08:44:25;6.72;;;4.43;;
31382;SDS011;18014;49.228;11.102;2023-03-16T08:46:26;6.70;;;4.07;;
31382;SDS011;18014;49.228;11.102;2023-03-16T08:48:27;7.60;;;4.53;;
31382;SDS011;18014;49.228;11.102;2023-03-16T08:50:28;6.97;;;4.03;;
31382;SDS011;18014;49.228;11.102;2023-03-16T08:52:29;5.68;;;4.15;;
31382;SDS011;18014;49.228;11.102;2023-03-16T08:54:30;6.35;;;3.95;;
31382;SDS011;18014;49.228;11.102;2023-03-16T08:56:32;5.65;;;4.05;;
31382;SDS011;18014;49.228;11.102;2023-03-16T08:58:34;5.97;;;4.30;;
31382;SDS011;18014;49.228;11.102;2023-03-16T09:00:35;6.40;;;3.92;;
31382;SDS011;18014;49.228;11.102;2023-03-16T09:02:38;5.38;;;3.92;;
31382;SDS011;18014;49.228;11.102;2023-03-16T09:04:42;3.90;;;3.50;;
31382;SDS011;18014;49.228;11.102;2023-03-16T09:06:43;4.93;;;3.53;;
31382;SDS011;18014;49.228;11.102;2023-03-16T09:08:44;5.00;;;3.30;;
31382;SDS011;18014;49.228;11.102;2023-03-16T09:10:46;4.93;;;2.50;;
31382;SDS011;18014;49.228;11.102;2023-03-16T09:12:50;4.03;;;2.20;;
31382;SDS011;18014;49.228;11.102;2023-03-16T09:14:52;4.20;;;2.67;;
31382;SDS011;18014;49.228;11.102;2023-03-16T09:16:53;2.65;;;2.30;;
31382;SDS011;18014;49.228;11.102;2023-03-16T09:18:55;5.07;;;2.28;;
31382;SDS011;18014;49.228;11.102;2023-03-16T09:20:58;3.37;;;1.67;;
31382;SDS011;18014;49.228;11.102;2023-03-16T09:25:01;3.15;;;2.17;;
31382;SDS011;18014;49.228;11.102;2023-03-16T09:27:05;4.72;;;2.33;;
31382;SDS011;18014;49.228;11.102;2023-03-16T09:29:06;2.60;;;2.20;;
31382;SDS011;18014;49.228;11.102;2023-03-16T09:31:08;2.60;;;2.08;;
31382;SDS011;18014;49.228;11.102;2023-03-16T09:33:14;3.00;;;2.03;;
31382;SDS011;18014;49.228;11.102;2023-03-16T09:35:15;3.42;;;1.90;;
31382;SDS011;18014;49.228;11.102;2023-03-16T09:37:16;2.42;;;1.92;;
31382;SDS011;18014;49.228;11.102;2023-03-16T09:39:18;4.72;;;2.20;;
31382;SDS011;18014;49.228;11.102;2023-03-16T09:48:15;4.75;;;2.40;;
31382;SDS011;18014;49.228;11.102;2023-03-16T09:50:26;2.47;;;2.10;;
31382;SDS011;18014;49.228;11.102;2023-03-16T09:52:41;3.63;;;1.83;;
31382;SDS011;18014;49.228;11.102;2023-03-16T09:57:28;4.45;;;2.42;;
31382;SDS011;18014;49.228;11.102;2023-03-16T09:59:33;3.28;;;2.33;;
31382;SDS011;18014;49.228;11.102;2023-03-16T10:06:20;3.67;;;2.67;;
31382;SDS011;18014;49.228;11.102;2023-03-16T10:08:22;3.70;;;2.25;;
31382;SDS011;18014;49.228;11.102;2023-03-16T10:12:48;3.35;;;3.03;;
31382;SDS011;18014;49.228;11.102;2023-03-16T10:15:07;7.38;;;5.10;;
31382;SDS011;18014;49.228;11.102;2023-03-16T10:17:16;5.80;;;4.00;;
31382;SDS011;18014;49.228;11.102;2023-03-16T10:19:27;3.58;;;3.15;;
31382;SDS011;18014;49.228;11.102;2023-03-16T10:21:42;3.67;;;3.20;;
31382;SDS011;18014;49.228;11.102;2023-03-16T10:23:47;5.07;;;3.20;;
31382;SDS011;18014;49.228;11.102;2023-03-16T10:25:50;3.40;;;3.08;;
31382;SDS011;18014;49.228;11.102;2023-03-16T10:27:53;3.75;;;2.88;;
31382;SDS011;18014;49.228;11.102;2023-03-16T10:32:00;3.60;;;2.55;;
31382;SDS011;18014;49.228;11.102;2023-03-16T10:34:11;3.50;;;2.97;;
31382;SDS011;18014;49.228;11.102;2023-03-16T10:38:36;3.15;;;2.80;;
31382;SDS011;18014;49.228;11.102;2023-03-16T10:40:41;4.70;;;3.35;;
31382;SDS011;18014;49.228;11.102;2023-03-16T10:42:43;4.53;;;2.97;;
31382;SDS011;18014;49.228;11.102;2023-03-16T10:44:45;3.42;;;2.80;;
31382;SDS011;18014;49.228;11.102;2023-03-16T10:46:57;3.95;;;2.97;;
31382;SDS011;18014;49.228;11.102;2023-03-16T10:49:00;5.70;;;3.03;;
31382;SDS011;18014;49.228;11.102;2023-03-16T10:51:03;3.15;;;2.83;;
31382;SDS011;18014;49.228;11.102;2023-03-16T10:53:18;4.40;;;3.00;;
31382;SDS011;18014;49.228;11.102;2023-03-16T10:55:26;5.03;;;2.88;;
31382;SDS011;18014;49.228;11.102;2023-03-16T10:57:32;2.67;;;2.45;;
31382;SDS011;18014;49.228;11.102;2023-03-16T10:59:35;3.10;;;2.45;;
31382;SDS011;18014;49.228;11.102;2023-03-16T11:01:37;3.20;;;2.85;;
31382;SDS011;18014;49.228;11.102;2023-03-16T11:03:39;2.88;;;2.47;;
31382;SDS011;18014;49.228;11.102;2023-03-16T11:05:40;2.50;;;2.20;;
31382;SDS011;18014;49.228;11.102;2023-03-16T11:07:48;4.07;;;2.80;;
31382;SDS011;18014;49.228;11.102;2023-03-16T11:09:51;4.18;;;2.85;;
31382;SDS011;18014;49.228;11.102;2023-03-16T11:13:56;4.00;;;2.35;;
31382;SDS011;18014;49.228;11.102;2023-03-16T11:18:34;3.53;;;2.92;;
31382;SDS011;18014;49.228;11.102;2023-03-16T11:20:42;3.88;;;3.25;;
31382;SDS011;18014;49.228;11.102;2023-03-16T11:22:44;3.45;;;3.15;;
31382;SDS011;18014;49.228;11.102;2023-03-16T11:25:02;5.82;;;4.25;;
31382;SDS011;18014;49.228;11.102;2023-03-16T11:31:48;5.25;;;3.65;;
31382;SDS011;18014;49.228;11.102;2023-03-16T11:34:04;3.80;;;3.35;;
31382;SDS011;18014;49.228;11.102;2023-03-16T11:36:19;5.25;;;3.53;;
31382;SDS011;18014;49.228;11.102;2023-03-16T11:38:28;5.82;;;3.78;;
31382;SDS011;18014;49.228;11.102;2023-03-16T11:42:42;3.78;;;3.25;;
31382;SDS011;18014;49.228;11.102;2023-03-16T11:45:07;3.63;;;3.33;;
31382;SDS011;18014;49.228;11.102;2023-03-16T11:47:35;4.10;;;3.70;;
31382;SDS011;18014;49.228;11.102;2023-03-16T11:52:32;3.58;;;3.22;;
31382;SDS011;18014;49.228;11.102;2023-03-16T11:57:03;5.22;;;2.85;;
31382;SDS011;18014;49.228;11.102;2023-03-16T12:07:01;4.22;;;3.40;;
31382;SDS011;18014;49.228;11.102;2023-03-16T12:13:39;3.78;;;2.97;;
31382;SDS011;18014;49.228;11.102;2023-03-16T12:15:53;3.78;;;2.97;;
31382;SDS011;18014;49.228;11.102;2023-03-16T12:20:25;3.95;;;3.30;;
31382;SDS011;18014;49.228;11.102;2023-03-16T12:24:41;3.58;;;2.60;;
31382;SDS011;18014;49.228;11.102;2023-03-16T12:26:45;4.20;;;2.83;;
31382;SDS011;18014;49.228;11.102;2023-03-16T12:28:48;2.85;;;2.45;;
31382;SDS011;18014;49.228;11.102;2023-03-16T12:31:06;2.70;;;2.50;;
31382;SDS011;18014;49.228;11.102;2023-03-16T12:38:49;3.90;;;3.50;;
31382;SDS011;18014;49.228;11.102;2023-03-16T12:46:12;3.85;;;3.38;;
31382;SDS011;18014;49.228;11.102;2023-03-16T12:48:38;3.20;;;2.90;;
31382;SDS011;18014;49.228;11.102;2023-03-16T12:50:50;3.42;;;2.67;;
31382;SDS011;18014;49.228;11.102;2023-03-16T12:52:54;2.55;;;2.35;;
31382;SDS011;18014;49.228;11.102;2023-03-16T12:55:06;3.40;;;2.20;;
31382;SDS011;18014;49.228;11.102;2023-03-16T12:57:14;2.70;;;2.45;;
31382;SDS011;18014;49.228;11.102;2023-03-16T12:59:18;2.30;;;2.10;;
31382;SDS011;18014;49.228;11.102;2023-03-16T13:01:23;2.90;;;2.60;;
31382;SDS011;18014;49.228;11.102;2023-03-16T13:03:27;3.20;;;2.38;;
31382;SDS011;18014;49.228;11.102;2023-03-16T13:05:29;1.95;;;1.83;;
31382;SDS011;18014;49.228;11.102;2023-03-16T13:07:32;2.20;;;2.00;;
31382;SDS011;18014;49.228;11.102;2023-03-16T13:09:34;3.83;;;2.55;;
31382;SDS011;18014;49.228;11.102;2023-03-16T13:11:42;4.40;;;2.88;;
31382;SDS011;18014;49.228;11.102;2023-03-16T13:14:07;3.40;;;2.58;;
31382;SDS011;18014;49.228;11.102;2023-03-16T13:16:21;6.30;;;2.93;;
31382;SDS011;18014;49.228;11.102;2023-03-16T13:18:26;3.33;;;3.03;;
31382;SDS011;18014;49.228;11.102;2023-03-16T13:20:49;3.10;;;2.80;;